Terminal Aerodrome Forecast
Issued by NWS

Home | Current Version | Previous Version | Text Only | Print | Product List | Glossary On
Versions: 1 2 3 4 5 6 7 8 9 10 11 12
000
FTUS45 KABQ 261100
TAFSAF
TAF
KSAF 261120Z 2612/2712 36013G20KT P6SM SKC
     FM262000 25006KT P6SM FEW250
     FM270100 03007KT P6SM BKN200
     FM270800 02010KT P6SM BKN150=

USA.gov is the U.S. government's official web portal to all federal, state and local government web resources and services.